LGIR/HER METAR and TAF weather

Enter ICAO airport designator
Station Type Date Time Source
LGIR METAR 2020/09/23 03:20 UTC NOAA

LGIR 230320Z VRB03KT 9999 FEW025 19/17 Q1016 NOSIG


Station Type Date Time Source
LGIR Decoded METAR 2020/09/23 03:20 UTC NOAA

Heraklion Airport , Greece (LGIR) 35-20N 025-11E 39M
Sep 22, 2020 - 11:20 PM EDT / 2020.09.23 0320 UTC
Wind: Variable at 3 MPH (3 KT):0
Visibility: greater than 7 mile(s):0
Sky conditions: mostly clear
Temperature: 66 F (19 C)
Dew Point: 62 F (17 C)
Relative Humidity: 88%
Pressure (altimeter): 30.00 in. Hg (1016 hPa)
ob: LGIR 230320Z VRB03KT 9999 FEW025 19/17 Q1016 NOSIG
cycle: 3

Station Type Date Time Source
LGIR TAF 2020/09/22 18:15 UTC NOAA

TAF LGIR 221700Z 2218/2318 32013KT 9999 FEW025
BECMG 2220/2222 VRB03KT
BECMG 2308/2310 30013KT

Example: see airport list